Terminal Aerodrome Forecast
Issued by NWS

Home | Current Version | Previous Version | Text Only | Print | Product List | Glossary On
Versions: 1 2 3 4 5 6 7 8 9 10 11 12 13 14 15 16 17 18
856
FTUS43 KFGF 141114 AAA
TAFBJI
TAF AMD
KBJI 141114Z 1411/1506 15011KT P6SM OVC060
      TEMPO 1414/1416 3SM -SN OVC015
     FM141600 16011KT 3SM -SN OVC025
     FM142100 16007KT P6SM OVC015
     FM150500 20005KT P6SM OVC008=

USA.gov is the U.S. government's official web portal to all federal, state and local government web resources and services.